Time;durP1;ratioP1;P1;durP2;ratioP2;P2;SDS_P1;SDS_P2;PMS_P1;PMS_P2;Temp;Humidity;BMP_temperature;BMP_pressure;BME280_temperature;BME280_humidity;BME280_pressure;Samples;Min_cycle;Max_cycle;Signal;HPM_P1;HPM_P2
2023/11/08 00:01:36;;;;;;;;;;;;;;;8.48;96.01;98579.11;135713;1278;22509;-71
2023/11/08 00:04:41;;;;;;;;;;;;;;;8.72;95.10;98576.90;135715;1278;22510;-70
2023/11/08 00:07:44;;;;;;;;;;;;;;;8.72;95.56;98579.35;135728;1278;24259;-71
2023/11/08 00:10:46;;;;;;;;;;;;;;;8.87;95.32;98581.24;135670;1278;22520;-70
2023/11/08 00:13:49;;;;;;;;;;;;;;;9.05;94.96;98582.16;135681;1278;22538;-69
2023/11/08 00:16:52;;;;;;;;;;;;;;;9.16;94.14;98581.66;135667;1278;22536;-70
2023/11/08 00:19:55;;;;;;;;;;;;;;;9.17;93.75;98581.95;135750;1259;22507;-74
2023/11/08 00:22:58;;;;;;;;;;;;;;;8.96;95.30;98581.96;135673;1278;22529;-73
2023/11/08 00:26:00;;;;;;;;;;;;;;;8.93;95.03;98582.67;135655;1278;22533;-72
2023/11/08 00:29:03;;;;;;;;;;;;;;;8.84;95.20;98582.14;135686;1278;22518;-74
2023/11/08 00:32:06;;;;;;;;;;;;;;;8.90;94.44;98578.67;135670;1278;22536;-71
2023/11/08 00:35:09;;;;;;;;;;;;;;;8.75;94.66;98574.80;135701;1278;22508;-73
2023/11/08 00:38:12;;;;;;;;;;;;;;;8.67;94.63;98567.73;135731;1278;23865;-72
2023/11/08 00:41:14;;;;;;;;;;;;;;;8.59;94.61;98564.73;135719;1278;23124;-73
2023/11/08 00:44:16;;;;;;;;;;;;;;;8.45;94.81;98561.81;135733;1278;22533;-72
2023/11/08 00:47:19;;;;;;;;;;;;;;;8.38;94.36;98557.16;135732;1278;22501;-70
2023/11/08 00:50:21;;;;;;;;;;;;;;;8.32;94.28;98560.80;135673;1278;25230;-74
2023/11/08 00:53:24;;;;;;;;;;;;;;;8.12;95.68;98561.18;135739;1275;22527;-74
2023/11/08 00:56:26;;;;;;;;;;;;;;;8.10;95.96;98556.11;135737;1278;22514;-74
2023/11/08 00:59:28;;;;;;;;;;;;;;;8.11;95.88;98557.42;135703;1278;22504;-73
2023/11/08 01:02:31;;;;;;;;;;;;;;;8.14;95.66;98553.61;135704;1278;22494;-72
2023/11/08 01:05:33;;;;;;;;;;;;;;;8.12;95.91;98554.05;135743;1278;22586;-73
2023/11/08 01:08:36;;;;;;;;;;;;;;;8.15;96.65;98553.38;135740;1278;22491;-73
2023/11/08 01:11:41;;;;;;;;;;;;;;;8.27;96.35;98547.99;135741;1278;22509;-74
2023/11/08 01:14:44;;;;;;;;;;;;;;;8.28;96.01;98547.59;135704;1278;22662;-74
2023/11/08 01:17:46;;;;;;;;;;;;;;;8.32;95.56;98546.14;135703;1278;24249;-75
2023/11/08 01:20:49;;;;;;;;;;;;;;;8.30;95.75;98545.75;135747;1278;22556;-75
2023/11/08 01:23:51;;;;;;;;;;;;;;;8.25;96.80;98541.67;135660;1278;22767;-69
2023/11/08 01:26:54;;;;;;;;;;;;;;;8.21;97.04;98539.67;135674;1278;22527;-71
2023/11/08 01:29:57;;;;;;;;;;;;;;;8.26;96.74;98537.29;135673;1278;22507;-69
2023/11/08 01:32:59;;;;;;;;;;;;;;;8.36;96.15;98534.25;135738;1278;22559;-72
2023/11/08 01:36:02;;;;;;;;;;;;;;;8.30;97.24;98534.60;135727;1273;22504;-70
2023/11/08 01:39:05;;;;;;;;;;;;;;;8.22;98.75;98530.36;135687;1278;22546;-72
2023/11/08 01:42:09;;;;;;;;;;;;;;;8.17;99.74;98523.66;135670;1278;25453;-73
2023/11/08 01:45:11;;;;;;;;;;;;;;;8.20;99.75;98522.95;135676;1278;22613;-69
2023/11/08 01:48:14;;;;;;;;;;;;;;;8.23;99.84;98519.35;135681;1278;26520;-72
2023/11/08 01:51:16;;;;;;;;;;;;;;;8.28;99.69;98520.59;135748;1278;24235;-71
2023/11/08 01:54:19;;;;;;;;;;;;;;;8.35;99.31;98515.68;135693;1278;22779;-70
2023/11/08 01:57:23;;;;;;;;;;;;;;;8.36;99.61;98511.61;135740;1278;22574;-70
2023/11/08 02:00:25;;;;;;;;;;;;;;;8.38;99.93;98510.80;135720;1278;22500;-73
2023/11/08 02:03:28;;;;;;;;;;;;;;;8.43;99.76;98508.46;135700;1278;22511;-67
2023/11/08 02:06:32;;;;;;;;;;;;;;;8.80;97.14;98511.77;135723;1278;22501;-68
2023/11/08 02:09:34;;;;;;;;;;;;;;;8.76;97.65;98513.71;135692;1278;22617;-70
2023/11/08 02:12:37;;;;;;;;;;;;;;;8.77;98.24;98514.52;135670;1278;25389;-68
2023/11/08 02:15:40;;;;;;;;;;;;;;;8.87;97.81;98521.45;135686;1261;24344;-69
2023/11/08 02:18:42;;;;;;;;;;;;;;;8.98;97.40;98518.20;135678;1278;22512;-68
2023/11/08 02:21:45;;;;;;;;;;;;;;;9.08;96.41;98516.54;135667;1278;22536;-70
2023/11/08 02:24:48;;;;;;;;;;;;;;;9.04;97.07;98516.09;135646;1278;22531;-69
2023/11/08 02:27:50;;;;;;;;;;;;;;;9.09;97.08;98512.82;135635;1278;22551;-70
2023/11/08 02:30:54;;;;;;;;;;;;;;;9.14;96.46;98511.83;135721;1278;22510;-71
2023/11/08 02:33:56;;;;;;;;;;;;;;;9.06;96.84;98509.52;135685;1278;22511;-72
2023/11/08 02:36:59;;;;;;;;;;;;;;;9.11;96.28;98505.00;135676;1278;22516;-72
2023/11/08 02:40:01;;;;;;;;;;;;;;;9.07;96.90;98510.16;135638;1278;22511;-73
2023/11/08 02:43:04;;;;;;;;;;;;;;;9.03;97.53;98514.23;135642;1278;22518;-69
2023/11/08 02:46:06;;;;;;;;;;;;;;;8.97;97.61;98518.62;135659;1263;22523;-73
2023/11/08 02:49:11;;;;;;;;;;;;;;;8.95;97.38;98518.89;135675;1278;22530;-72
2023/11/08 02:52:13;;;;;;;;;;;;;;;8.96;96.61;98514.11;135655;1278;24036;-72
2023/11/08 02:55:16;;;;;;;;;;;;;;;8.87;96.71;98516.94;135668;1278;22522;-72
2023/11/08 02:58:18;;;;;;;;;;;;;;;8.78;96.53;98514.45;135647;1278;22530;-73
2023/11/08 03:01:22;;;;;;;;;;;;;;;8.69;96.65;98516.42;135630;1259;22613;-72
2023/11/08 03:04:25;;;;;;;;;;;;;;;8.61;97.97;98516.67;135638;1264;23175;-71
2023/11/08 03:07:28;;;;;;;;;;;;;;;8.55;98.53;98522.95;135665;1275;22520;-73
2023/11/08 03:10:31;;;;;;;;;;;;;;;8.57;99.70;98528.24;135644;1278;24379;-72
2023/11/08 03:13:33;;;;;;;;;;;;;;;8.58;99.89;98532.54;135630;1259;22647;-72
2023/11/08 03:16:35;;;;;;;;;;;;;;;8.43;99.88;98536.84;135674;1278;22541;-72
2023/11/08 03:19:38;;;;;;;;;;;;;;;8.26;100.00;98532.55;135699;1278;22499;-72
2023/11/08 03:22:40;;;;;;;;;;;;;;;8.19;100.00;98528.95;135625;1278;22523;-72
2023/11/08 03:25:43;;;;;;;;;;;;;;;8.19;100.00;98533.33;135678;1264;22767;-73
2023/11/08 03:28:45;;;;;;;;;;;;;;;8.22;99.91;98532.48;135651;1278;22530;-70
2023/11/08 03:31:48;;;;;;;;;;;;;;;8.07;100.00;98535.71;135673;1267;22540;-72
2023/11/08 03:34:50;;;;;;;;;;;;;;;7.96;100.00;98540.32;135667;1278;22623;-70
2023/11/08 03:37:54;;;;;;;;;;;;;;;7.88;100.00;98544.95;135622;1278;24179;-72
2023/11/08 03:40:57;;;;;;;;;;;;;;;7.99;98.34;98543.13;135680;1278;24374;-73
2023/11/08 03:43:59;;;;;;;;;;;;;;;7.74;98.84;98546.70;135633;1278;22541;-70
2023/11/08 03:47:02;;;;;;;;;;;;;;;7.48;100.00;98543.77;135638;1278;22518;-69
2023/11/08 03:50:05;;;;;;;;;;;;;;;7.31;100.00;98542.39;135635;1275;22528;-69
2023/11/08 03:53:07;;;;;;;;;;;;;;;7.09;100.00;98544.03;135683;1259;22525;-74
2023/11/08 03:56:10;;;;;;;;;;;;;;;7.19;100.00;98541.59;135649;1278;22504;-73
2023/11/08 03:59:13;;;;;;;;;;;;;;;7.02;100.00;98539.88;135675;1278;22521;-72
2023/11/08 04:02:16;;;;;;;;;;;;;;;6.89;100.00;98538.58;135621;1259;23133;-73
2023/11/08 04:05:18;;;;;;;;;;;;;;;6.68;100.00;98541.92;135635;1278;22522;-68
2023/11/08 04:08:21;;;;;;;;;;;;;;;6.64;100.00;98540.34;135592;1259;23124;-67
2023/11/08 04:11:23;;;;;;;;;;;;;;;6.73;100.00;98543.39;135684;1278;22531;-68
2023/11/08 04:14:26;;;;;;;;;;;;;;;6.87;100.00;98542.00;135640;1278;22535;-68
2023/11/08 04:17:28;;;;;;;;;;;;;;;7.01;100.00;98545.48;135638;1278;23295;-68
2023/11/08 04:20:31;;;;;;;;;;;;;;;7.24;100.00;98542.05;135634;1278;22523;-71
2023/11/08 04:23:33;;;;;;;;;;;;;;;7.35;100.00;98545.30;135595;1262;22520;-67
2023/11/08 04:26:36;;;;;;;;;;;;;;;7.39;100.00;98547.88;135633;1278;22518;-67
2023/11/08 04:29:38;;;;;;;;;;;;;;;7.44;100.00;98548.15;135675;1278;22526;-68
2023/11/08 04:32:43;;;;;;;;;;;;;;;7.49;100.00;98552.23;135580;1278;25584;-70
2023/11/08 04:35:46;;;;;;;;;;;;;;;7.48;100.00;98551.21;135584;1278;22530;-70
2023/11/08 04:38:48;;;;;;;;;;;;;;;7.56;100.00;98552.39;135604;1278;22519;-70
2023/11/08 04:41:50;;;;;;;;;;;;;;;7.67;100.00;98557.73;135593;1278;22569;-73
2023/11/08 04:44:53;;;;;;;;;;;;;;;7.81;100.00;98556.29;135582;1278;22591;-69
2023/11/08 04:47:55;;;;;;;;;;;;;;;7.66;100.00;98551.34;135580;1278;22511;-68
2023/11/08 04:50:58;;;;;;;;;;;;;;;7.69;100.00;98552.06;135577;1278;22514;-69
2023/11/08 04:54:01;;;;;;;;;;;;;;;7.74;100.00;98553.36;135644;1278;22515;-69
2023/11/08 04:57:03;;;;;;;;;;;;;;;7.84;100.00;98561.00;135628;1278;24111;-68
2023/11/08 05:00:06;;;;;;;;;;;;;;;7.92;100.00;98564.73;135587;1278;25708;-71
2023/11/08 05:03:08;;;;;;;;;;;;;;;7.95;100.00;98564.02;135602;1278;22527;-71
2023/11/08 05:06:11;;;;;;;;;;;;;;;8.00;100.00;98562.38;135640;1278;22523;-72
2023/11/08 05:09:15;;;;;;;;;;;;;;;8.07;100.00;98564.64;135647;1278;22517;-73
2023/11/08 05:12:19;;;;;;;;;;;;;;;8.16;100.00;98570.56;135621;1278;22542;-71
2023/11/08 05:15:23;;;;;;;;;;;;;;;8.23;100.00;98571.43;135639;1278;22504;-71
2023/11/08 05:18:26;;;;;;;;;;;;;;;8.36;100.00;98575.05;135646;1278;22519;-72
2023/11/08 05:21:28;;;;;;;;;;;;;;;8.61;100.00;98579.23;135676;1278;22530;-72
2023/11/08 05:24:31;;;;;;;;;;;;;;;8.89;100.00;98587.77;135636;1278;22546;-72
2023/11/08 05:27:34;;;;;;;;;;;;;;;9.10;100.00;98585.33;135627;1278;22527;-72
2023/11/08 05:30:37;;;;;;;;;;;;;;;9.27;100.00;98589.40;135654;1278;22528;-72
2023/11/08 05:33:40;;;;;;;;;;;;;;;9.38;100.00;98588.76;135601;1278;22524;-72
2023/11/08 05:36:43;;;;;;;;;;;;;;;9.42;100.00;98590.41;135649;1278;22511;-72
2023/11/08 05:39:45;;;;;;;;;;;;;;;9.56;100.00;98588.67;135656;1278;22505;-72
2023/11/08 05:42:47;;;;;;;;;;;;;;;9.80;100.00;98587.27;135586;1278;22519;-72
2023/11/08 05:45:50;;;;;;;;;;;;;;;9.85;100.00;98593.23;135641;1278;24103;-69
2023/11/08 05:48:52;;;;;;;;;;;;;;;9.88;100.00;98590.45;135659;1278;25377;-72
2023/11/08 05:51:55;;;;;;;;;;;;;;;9.96;100.00;98589.75;135635;1278;22991;-70
2023/11/08 05:54:57;;;;;;;;;;;;;;;10.03;100.00;98595.31;135633;1278;22596;-75
2023/11/08 05:58:01;;;;;;;;;;;;;;;10.02;100.00;98601.95;135672;1278;25221;-69
2023/11/08 06:01:04;;;;;;;;;;;;;;;10.09;100.00;98608.50;135677;1278;22507;-71
2023/11/08 06:04:07;;;;;;;;;;;;;;;10.10;100.00;98609.52;135612;1278;22509;-71
2023/11/08 06:07:09;;;;;;;;;;;;;;;10.14;100.00;98616.42;135674;1278;22650;-72
2023/11/08 06:10:12;;;;;;;;;;;;;;;10.16;100.00;98620.50;135672;1278;22522;-73
2023/11/08 06:13:14;;;;;;;;;;;;;;;10.24;100.00;98620.52;135651;1278;22518;-73
2023/11/08 06:16:17;;;;;;;;;;;;;;;10.26;100.00;98622.13;135702;1278;22527;-73
2023/11/08 06:19:19;;;;;;;;;;;;;;;10.35;100.00;98623.50;135679;1278;22538;-73
2023/11/08 06:22:21;;;;;;;;;;;;;;;10.36;100.00;98623.24;135626;1278;22545;-74
2023/11/08 06:25:24;;;;;;;;;;;;;;;10.47;100.00;98625.22;135580;1278;22570;-70
2023/11/08 06:28:26;;;;;;;;;;;;;;;10.64;100.00;98631.13;135630;1278;22519;-73
2023/11/08 06:31:29;;;;;;;;;;;;;;;10.68;100.00;98629.98;135617;1278;22528;-74
2023/11/08 06:34:31;;;;;;;;;;;;;;;10.85;100.00;98634.85;135646;1278;22534;-73
2023/11/08 06:37:34;;;;;;;;;;;;;;;10.97;100.00;98637.91;135661;1278;22519;-74
2023/11/08 06:40:36;;;;;;;;;;;;;;;10.84;100.00;98636.14;135646;1278;22519;-74
2023/11/08 06:43:38;;;;;;;;;;;;;;;10.81;100.00;98638.95;135608;1278;22621;-72
2023/11/08 06:46:41;;;;;;;;;;;;;;;10.75;100.00;98646.68;135658;1278;22599;-73
2023/11/08 06:49:43;;;;;;;;;;;;;;;10.82;100.00;98650.09;135613;1278;22534;-72
2023/11/08 06:52:46;;;;;;;;;;;;;;;10.93;100.00;98648.86;135611;1278;22516;-70
2023/11/08 06:55:48;;;;;;;;;;;;;;;11.00;100.00;98651.07;135652;1267;22534;-73
2023/11/08 06:58:50;;;;;;;;;;;;;;;11.06;100.00;98650.64;135607;1278;22519;-72
2023/11/08 07:01:53;;;;;;;;;;;;;;;11.19;100.00;98650.34;135593;1278;23134;-73
2023/11/08 07:04:55;;;;;;;;;;;;;;;11.21;100.00;98653.36;135588;1278;22531;-69
2023/11/08 07:07:58;;;;;;;;;;;;;;;11.20;100.00;98657.24;135548;1278;167142;-71
2023/11/08 07:11:00;;;;;;;;;;;;;;;11.22;100.00;98661.16;135650;1260;22634;-69
2023/11/08 07:14:02;;;;;;;;;;;;;;;11.36;100.00;98663.54;135658;1278;25224;-68
2023/11/08 07:17:06;;;;;;;;;;;;;;;11.51;100.00;98660.44;135645;1278;22516;-71
2023/11/08 07:20:09;;;;;;;;;;;;;;;11.73;100.00;98664.38;135658;1278;22542;-67
2023/11/08 07:23:11;;;;;;;;;;;;;;;11.84;100.00;98669.59;135604;1278;22570;-71
2023/11/08 07:26:15;;;;;;;;;;;;;;;11.99;100.00;98672.98;135584;1278;22510;-68
2023/11/08 07:29:18;;;;;;;;;;;;;;;12.05;100.00;98671.90;135641;1278;22512;-71
2023/11/08 07:32:20;;;;;;;;;;;;;;;12.05;100.00;98675.23;135549;1278;22986;-72
2023/11/08 07:35:24;;;;;;;;;;;;;;;12.03;100.00;98679.01;135617;1278;25360;-73
2023/11/08 07:38:27;;;;;;;;;;;;;;;12.18;100.00;98676.91;135664;1278;22572;-72
2023/11/08 07:41:30;;;;;;;;;;;;;;;12.36;100.00;98678.14;135636;1278;22567;-71
2023/11/08 07:44:33;;;;;;;;;;;;;;;12.28;100.00;98681.67;135607;1278;22527;-72
2023/11/08 07:47:35;;;;;;;;;;;;;;;12.25;100.00;98682.73;135592;1278;24046;-72
2023/11/08 07:50:38;;;;;;;;;;;;;;;12.07;100.00;98685.74;135639;1278;22534;-70
2023/11/08 07:53:40;;;;;;;;;;;;;;;12.09;100.00;98685.58;135628;1278;22537;-71
2023/11/08 07:56:43;;;;;;;;;;;;;;;12.29;100.00;98684.95;135686;1278;22519;-72
2023/11/08 07:59:45;;;;;;;;;;;;;;;12.34;100.00;98690.02;135589;1260;22542;-73
2023/11/08 08:02:48;;;;;;;;;;;;;;;12.40;100.00;98685.94;135610;1276;22556;-74
2023/11/08 08:05:52;;;;;;;;;;;;;;;12.65;100.00;98683.08;135655;1278;22729;-67
2023/11/08 08:08:55;;;;;;;;;;;;;;;12.62;100.00;98684.86;135603;1278;22510;-73
2023/11/08 08:11:57;;;;;;;;;;;;;;;12.68;100.00;98688.14;135638;1278;25383;-70
2023/11/08 08:15:00;;;;;;;;;;;;;;;12.65;100.00;98692.77;135629;1278;22558;-71
2023/11/08 08:18:03;;;;;;;;;;;;;;;12.73;100.00;98687.57;135661;1278;22517;-72
2023/11/08 08:21:05;;;;;;;;;;;;;;;12.92;100.00;98685.91;135664;1278;22518;-76
2023/11/08 08:24:07;;;;;;;;;;;;;;;12.87;100.00;98686.61;135580;1278;22508;-69
2023/11/08 08:27:11;;;;;;;;;;;;;;;13.01;100.00;98691.73;135653;1278;22535;-68
2023/11/08 08:30:14;;;;;;;;;;;;;;;12.98;100.00;98691.91;135658;1278;22535;-68
2023/11/08 08:33:16;;;;;;;;;;;;;;;13.03;100.00;98697.35;135603;1268;22538;-73
2023/11/08 08:36:19;;;;;;;;;;;;;;;13.04;100.00;98695.04;135673;1278;22511;-67
2023/11/08 08:39:24;;;;;;;;;;;;;;;12.87;99.88;98695.54;135611;1278;22592;-76
2023/11/08 08:42:26;;;;;;;;;;;;;;;12.86;100.00;98693.88;135624;1278;25571;-76
2023/11/08 08:45:29;;;;;;;;;;;;;;;12.70;100.00;98699.21;135608;1278;22518;-69
2023/11/08 08:48:32;;;;;;;;;;;;;;;12.61;100.00;98702.69;135662;1278;25383;-67
2023/11/08 08:51:34;;;;;;;;;;;;;;;12.73;100.00;98706.58;135668;1278;23236;-67
2023/11/08 08:54:37;;;;;;;;;;;;;;;12.86;100.00;98704.54;135626;1278;22533;-66
2023/11/08 08:57:39;;;;;;;;;;;;;;;12.76;100.00;98705.48;135630;1278;22515;-70
2023/11/08 09:00:41;;;;;;;;;;;;;;;12.81;100.00;98710.90;135654;1278;22498;-73
2023/11/08 09:03:44;;;;;;;;;;;;;;;12.83;100.00;98713.54;135606;1278;22516;-76
2023/11/08 09:06:46;;;;;;;;;;;;;;;12.74;100.00;98719.69;135623;1278;22505;-72
2023/11/08 09:09:49;;;;;;;;;;;;;;;12.75;100.00;98712.39;135684;1278;22537;-72
2023/11/08 09:12:51;;;;;;;;;;;;;;;12.67;99.90;98716.29;135687;1278;22507;-70
2023/11/08 09:15:53;;;;;;;;;;;;;;;12.78;99.44;98714.61;135648;1278;22522;-74
2023/11/08 09:18:56;;;;;;;;;;;;;;;12.91;99.31;98722.98;135676;1278;22528;-76
2023/11/08 09:21:59;;;;;;;;;;;;;;;13.04;98.68;98716.58;135631;1278;22519;-74
2023/11/08 09:25:04;;;;;;;;;;;;;;;13.63;97.15;98716.17;135616;1278;22538;-68
2023/11/08 09:28:06;;;;;;;;;;;;;;;13.99;95.04;98711.52;135676;1278;22518;-69
2023/11/08 09:31:08;;;;;;;;;;;;;;;13.85;93.90;98709.80;135635;1278;22520;-69
2023/11/08 09:34:11;;;;;;;;;;;;;;;13.91;91.10;98709.66;135684;1278;22511;-74
2023/11/08 09:37:14;;;;;;;;;;;;;;;13.86;90.89;98705.10;135679;1278;22522;-74
2023/11/08 09:40:17;;;;;;;;;;;;;;;13.81;89.92;98714.66;135728;1278;22537;-74
2023/11/08 09:43:19;;;;;;;;;;;;;;;13.95;90.14;98709.73;135674;1278;22553;-75
2023/11/08 09:46:21;;;;;;;;;;;;;;;14.31;89.41;98706.39;135570;1278;22553;-73
2023/11/08 09:49:24;;;;;;;;;;;;;;;14.29;84.84;98710.94;135713;1278;22527;-68
2023/11/08 09:52:26;;;;;;;;;;;;;;;14.14;83.51;98705.98;135642;1278;22518;-68
2023/11/08 09:55:29;;;;;;;;;;;;;;;14.18;83.81;98701.95;135672;1278;22508;-72
2023/11/08 09:58:31;;;;;;;;;;;;;;;14.03;83.46;98707.30;135683;1278;22523;-75
2023/11/08 10:01:34;;;;;;;;;;;;;;;13.68;82.60;98714.54;135682;1278;22534;-75
2023/11/08 10:04:37;;;;;;;;;;;;;;;13.79;83.38;98702.84;135677;1278;22520;-75
2023/11/08 10:07:41;;;;;;;;;;;;;;;13.41;84.65;98703.38;135578;1278;26587;-75
2023/11/08 10:10:45;;;;;;;;;;;;;;;13.41;85.12;98693.23;135656;1278;25284;-74
2023/11/08 10:13:48;;;;;;;;;;;;;;;13.56;84.10;98696.83;135620;1278;25185;-73
2023/11/08 10:16:51;;;;;;;;;;;;;;;13.65;86.05;98692.64;135696;1278;22629;-74
2023/11/08 10:19:54;;;;;;;;;;;;;;;13.68;84.51;98697.33;135664;1278;22510;-75
2023/11/08 10:22:57;;;;;;;;;;;;;;;13.42;84.98;98693.66;135641;1278;24364;-76
2023/11/08 10:25:59;;;;;;;;;;;;;;;13.64;86.36;98685.86;135663;1278;25380;-75
2023/11/08 10:29:03;;;;;;;;;;;;;;;13.61;85.15;98695.39;135705;1278;22514;-76
2023/11/08 10:32:05;;;;;;;;;;;;;;;13.72;85.83;98682.08;135692;1278;22531;-77
2023/11/08 10:35:07;;;;;;;;;;;;;;;13.82;82.32;98685.88;135693;1278;22553;-74
2023/11/08 10:38:10;;;;;;;;;;;;;;;13.60;83.25;98686.34;135694;1278;22542;-76
2023/11/08 10:41:12;;;;;;;;;;;;;;;13.42;84.74;98677.88;135743;1278;22608;-75
2023/11/08 10:44:15;;;;;;;;;;;;;;;13.35;83.11;98682.77;135707;1278;22515;-77
2023/11/08 10:47:17;;;;;;;;;;;;;;;13.44;84.98;98669.25;135655;1278;22550;-75
2023/11/08 11:01:15;;;;;;;;;;;;;;;14.04;78.41;98663.89;135726;1278;22558;-78
2023/11/08 11:04:17;;;;;;;;;;;;;;;13.71;79.73;98661.14;135675;1278;22533;-78
2023/11/08 11:07:22;;;;;;;;;;;;;;;13.69;80.66;98659.70;135609;1278;22586;-77
2023/11/08 11:10:25;;;;;;;;;;;;;;;13.69;78.48;98661.95;135653;1278;24367;-76
2023/11/08 11:13:27;;;;;;;;;;;;;;;13.65;78.52;98668.23;135711;1278;22519;-76
2023/11/08 11:16:30;;;;;;;;;;;;;;;13.55;79.33;98661.08;135707;1278;24350;-72
2023/11/08 11:19:33;;;;;;;;;;;;;;;13.40;79.80;98660.45;135652;1278;24199;-78
2023/11/08 11:22:35;;;;;;;;;;;;;;;13.51;80.39;98657.49;135697;1278;22618;-76
2023/11/08 11:25:38;;;;;;;;;;;;;;;13.45;79.79;98660.77;135684;1269;22648;-76
2023/11/08 11:28:40;;;;;;;;;;;;;;;13.37;80.53;98659.45;135707;1278;22534;-76
2023/11/08 11:31:43;;;;;;;;;;;;;;;13.46;80.41;98659.63;135693;1278;22526;-77
2023/11/08 11:34:48;;;;;;;;;;;;;;;13.30;80.99;98658.16;135676;1278;22577;-77
2023/11/08 11:37:50;;;;;;;;;;;;;;;13.35;81.15;98656.23;135718;1278;22658;-76
2023/11/08 11:40:53;;;;;;;;;;;;;;;13.52;81.79;98656.95;135691;1278;24237;-77
2023/11/08 11:43:55;;;;;;;;;;;;;;;13.32;81.85;98655.26;135738;1278;25293;-78
2023/11/08 11:46:58;;;;;;;;;;;;;;;13.44;81.27;98656.79;135654;1278;22541;-74
2023/11/08 11:50:01;;;;;;;;;;;;;;;13.42;81.86;98657.50;135686;1278;22660;-75
2023/11/08 11:53:03;;;;;;;;;;;;;;;13.42;82.03;98660.15;135687;1278;25386;-74
2023/11/08 11:56:06;;;;;;;;;;;;;;;12.99;84.53;98665.41;135751;1265;22637;-77
2023/11/08 11:59:09;;;;;;;;;;;;;;;13.19;84.52;98661.78;135729;1278;25439;-75
2023/11/08 12:02:12;;;;;;;;;;;;;;;13.64;84.08;98657.73;135731;1278;22515;-75
2023/11/08 12:05:14;;;;;;;;;;;;;;;14.36;79.38;98657.66;135751;1278;22518;-78
2023/11/08 12:08:16;;;;;;;;;;;;;;;14.73;77.45;98655.78;135598;1278;22527;-72
2023/11/08 12:11:19;;;;;;;;;;;;;;;14.83;79.84;98656.92;135669;1278;22537;-72
2023/11/08 12:14:22;;;;;;;;;;;;;;;14.76;69.87;98659.75;135683;1278;25328;-75
2023/11/08 12:17:24;;;;;;;;;;;;;;;14.78;71.38;98659.58;135679;1278;22503;-78
2023/11/08 12:20:33;;;;;;;;;;;;;;;14.54;68.06;98658.18;135717;1278;22637;-76
2023/11/08 12:23:35;;;;;;;;;;;;;;;14.20;68.93;98653.95;135726;1277;23233;-75
2023/11/08 12:26:38;;;;;;;;;;;;;;;14.16;68.49;98656.22;135696;1278;22533;-75
2023/11/08 12:29:40;;;;;;;;;;;;;;;14.16;67.48;98643.41;135706;1278;24190;-67
2023/11/08 12:32:43;;;;;;;;;;;;;;;14.00;68.29;98646.42;135713;1260;24247;-70
2023/11/08 12:35:46;;;;;;;;;;;;;;;14.10;67.41;98661.66;135679;1278;22522;-73
2023/11/08 12:38:49;;;;;;;;;;;;;;;13.86;68.64;98681.38;135713;1278;23869;-71
2023/11/08 12:41:53;;;;;;;;;;;;;;;13.47;71.63;98688.22;135729;1278;22538;-79
2023/11/08 12:44:55;;;;;;;;;;;;;;;13.12;74.31;98676.33;135700;1256;22511;-74
2023/11/08 12:47:58;;;;;;;;;;;;;;;13.02;76.08;98670.25;135675;1278;22623;-69
2023/11/08 12:51:01;;;;;;;;;;;;;;;12.98;77.40;98671.93;135654;1278;22662;-69
2023/11/08 12:54:05;;;;;;;;;;;;;;;12.81;78.24;98670.87;135655;1254;22613;-67
2023/11/08 12:57:07;;;;;;;;;;;;;;;12.85;78.18;98670.58;135756;1278;22547;-77
2023/11/08 13:00:11;;;;;;;;;;;;;;;12.62;79.99;98671.74;135651;1278;22616;-70
2023/11/08 13:03:20;;;;;;;;;;;;;;;12.49;80.73;98681.56;135660;1278;22565;-79
2023/11/08 13:06:23;;;;;;;;;;;;;;;12.29;81.25;98686.17;135638;1278;22521;-80
2023/11/08 13:09:28;;;;;;;;;;;;;;;12.22;81.97;98698.41;135679;1260;22501;-70
2023/11/08 13:12:31;;;;;;;;;;;;;;;12.18;82.61;98698.83;135696;1278;22505;-67
2023/11/08 13:15:33;;;;;;;;;;;;;;;12.22;82.47;98691.55;135719;1278;22559;-67
2023/11/08 13:18:36;;;;;;;;;;;;;;;12.46;81.71;98700.42;135697;1278;22569;-67
2023/11/08 13:21:38;;;;;;;;;;;;;;;12.37;84.12;98716.63;135692;1278;22538;-67
2023/11/08 13:24:41;;;;;;;;;;;;;;;12.04;87.68;98732.05;135705;1278;22527;-80
2023/11/08 13:27:44;;;;;;;;;;;;;;;11.61;90.42;98732.45;135688;1278;22521;-67
2023/11/08 13:30:51;;;;;;;;;;;;;;;11.17;95.34;98755.45;135692;1278;22543;-68
2023/11/08 13:33:54;;;;;;;;;;;;;;;10.85;100.00;98749.13;135663;1260;23060;-76
2023/11/08 13:36:58;;;;;;;;;;;;;;;11.09;100.00;98728.70;135682;1278;25582;-81
2023/11/08 13:40:01;;;;;;;;;;;;;;;11.53;99.40;98701.79;135744;1278;22516;-80
2023/11/08 13:43:04;;;;;;;;;;;;;;;11.88;93.21;98701.94;135707;1278;22510;-80
2023/11/08 13:46:07;;;;;;;;;;;;;;;11.91;93.18;98698.59;135746;1278;22511;-81
2023/11/08 13:49:11;;;;;;;;;;;;;;;12.03;89.72;98697.23;135672;1278;22539;-81
2023/11/08 13:52:13;;;;;;;;;;;;;;;12.12;90.72;98694.38;135739;1278;22633;-77
2023/11/08 13:55:16;;;;;;;;;;;;;;;12.30;91.59;98689.40;135702;1256;22504;-80
2023/11/08 13:58:18;;;;;;;;;;;;;;;12.51;91.71;98693.00;135730;1278;22517;-77
2023/11/08 14:01:21;;;;;;;;;;;;;;;12.52;90.85;98697.17;135699;1278;22511;-77
2023/11/08 14:04:24;;;;;;;;;;;;;;;12.52;92.56;98698.08;135678;1254;22532;-78
2023/11/08 14:07:27;;;;;;;;;;;;;;;12.52;94.37;98700.48;135715;1278;22496;-79
2023/11/08 14:10:29;;;;;;;;;;;;;;;12.67;94.22;98701.20;135677;1278;22529;-77
2023/11/08 14:13:32;;;;;;;;;;;;;;;12.77;94.24;98699.23;135720;1278;22556;-74
2023/11/08 14:16:35;;;;;;;;;;;;;;;12.91;92.07;98701.73;135751;1278;22548;-78
2023/11/08 14:19:38;;;;;;;;;;;;;;;12.84;91.30;98700.37;135697;1278;22521;-79
2023/11/08 14:22:40;;;;;;;;;;;;;;;12.80;90.64;98702.52;135735;1278;22523;-80
2023/11/08 14:25:43;;;;;;;;;;;;;;;12.81;89.74;98699.85;135684;1278;24193;-80
2023/11/08 14:28:48;;;;;;;;;;;;;;;12.65;90.41;98701.85;135708;1275;22512;-79
2023/11/08 14:31:51;;;;;;;;;;;;;;;12.43;90.42;98703.41;135741;1278;22533;-73
2023/11/08 14:34:53;;;;;;;;;;;;;;;11.93;92.91;98706.69;135674;1259;22627;-67
2023/11/08 14:37:56;;;;;;;;;;;;;;;11.78;93.20;98705.41;135662;1278;22518;-78
2023/11/08 14:40:58;;;;;;;;;;;;;;;11.76;92.70;98703.98;135719;1260;22776;-81
2023/11/08 14:44:02;;;;;;;;;;;;;;;11.75;92.18;98699.09;135720;1278;22523;-78
2023/11/08 14:47:05;;;;;;;;;;;;;;;11.64;92.73;98699.01;135743;1259;24199;-81
2023/11/08 14:50:09;;;;;;;;;;;;;;;11.33;94.42;98699.23;135681;1278;22518;-80
2023/11/08 14:53:12;;;;;;;;;;;;;;;11.38;94.32;98700.54;135688;1259;22525;-78
2023/11/08 14:56:14;;;;;;;;;;;;;;;11.47;92.89;98699.74;135715;1278;22520;-77
2023/11/08 14:59:17;;;;;;;;;;;;;;;11.52;92.18;98698.21;135684;1278;22518;-73
2023/11/08 15:02:19;;;;;;;;;;;;;;;11.26;94.69;98698.85;135718;1278;22511;-75
2023/11/08 15:05:22;;;;;;;;;;;;;;;11.18;96.31;98703.95;135697;1278;22564;-77
2023/11/08 15:08:25;;;;;;;;;;;;;;;11.15;95.15;98707.11;135674;1278;22504;-79
2023/11/08 15:11:28;;;;;;;;;;;;;;;10.93;96.18;98710.81;135683;1278;25341;-76
2023/11/08 15:14:30;;;;;;;;;;;;;;;10.96;96.10;98716.06;135700;1278;25315;-74
2023/11/08 15:17:33;;;;;;;;;;;;;;;10.84;98.13;98719.10;135665;1278;25347;-76
2023/11/08 15:20:35;;;;;;;;;;;;;;;10.84;97.72;98712.62;135662;1278;22536;-79
2023/11/08 15:23:38;;;;;;;;;;;;;;;10.78;95.92;98711.05;135719;1278;22557;-79
2023/11/08 15:26:40;;;;;;;;;;;;;;;10.77;96.07;98720.05;135740;1278;22523;-80
2023/11/08 15:29:43;;;;;;;;;;;;;;;10.84;94.08;98714.69;135783;1275;22514;-74
2023/11/08 15:32:45;;;;;;;;;;;;;;;10.87;93.25;98708.91;135663;1278;22465;-77
2023/11/08 15:35:48;;;;;;;;;;;;;;;10.67;94.49;98708.80;135689;1278;22521;-76
2023/11/08 15:38:53;;;;;;;;;;;;;;;10.62;94.30;98713.13;132379;1278;1003613;-80
2023/11/08 15:41:56;;;;;;;;;;;;;;;10.31;95.86;98712.54;67850;1278;1015954;-79
2023/11/08 15:44:59;;;;;;;;;;;;;;;10.25;96.52;98717.48;67811;1278;1016176;-80
2023/11/08 15:48:01;;;;;;;;;;;;;;;10.22;97.22;98718.00;67824;1278;1016803;-79